Search for airport 
image banner adimage banner adimage banner ad
image banner ad

KAXQ - Clarion County

Located in Clarion, United States

ICAO - AXQ, IATA -

Data provided by Airmate  

General information

Coordinates: N41°13'30" W79°26'32"
Elevation is 1458 feet MSL.
Magnetic variation is -10° East
View others Airports in Pennsylvania

Operational data

Special qualification required
Current time UTC:
Current local time:
Weather at : KFKL - Venango Rgnl ( 39 km )
METAR: KFKL 132041Z AUTO 21006KT 10SM TS FEW046 BKN060 26/18 A2985 RMK AO2 LTG DSNT NE AND SW TSB35
TAF: KFKL 131720Z 1318/1418 28005KT P6SM VCTS BKN050CB FM132200 32006KT P6SM SCT060 FM140500 00000KT P6SM SCT250 FM141300 29005KT P6SM SCT060
View NOTAMs / SUP AIP / TFR affecting this airport [VIEW]
Communications frequencies: [VIEW]

Runways:

RWY identifierQFULength (ft)Width (ft)SurfaceLDA (ft)
0645°500375ASPH
24225°500375ASPH

Airport contact information

Address: Clarion United States

Other aviation service providers

Flight schools

Clarion County Airport Authority

Clarion County Airport Authority

Satellite view of KAXQ